MSC Federica — HPQE — position and weather

sailwx.info

Track history (hours):
 
Tides and Currents Weather Stations Pressure Air Temp Water Temp Dewpoint Dewpoint Depression Visibility Wind Speed Wind Dir Waves Ship Positions

MSC Federica

Last reported at 2014-Dec-19 09:23 UTC. Time now 2014-Dec-22 18:29 UTC.
Position N 33°48' W 076°55'.

Length 294 m; draft 8.7 m.

Type: Ship (hazmat cat B). MMSI: 357363000.

Date/timePositionNaut miles runAvg speedWind from/ knotsBaromVisibWave heightAir tempDewpointWater temp
2014-Dec-19 09:23N 33°48' W 076°55'9117.2
2014-Dec-19 04:07N 34°50' W 075°34'28818.4
2014-Dec-18 12:26N 39°27' W 073°58'1921.3
2014-Dec-18 11:33N 39°46' W 073°53'4214.0
2014-Dec-18 08:33N 40°27' W 073°51'1111.0
2014-Dec-18 07:34N 40°34' W 074°02'7 7.0
2014-Dec-18 06:34N 40°39' W 074°09'3 2.6
2014-Dec-18 05:33N 40°41' W 074°09'0 0.0
2014-Dec-18 04:33N 40°41' W 074°09'0 0.0
2014-Dec-18 03:33N 40°41' W 074°09'0 0.0
2014-Dec-18 02:33N 40°41' W 074°09'0 0.0
2014-Dec-18 01:33N 40°41' W 074°09'0 0.0
2014-Dec-18 00:15N 40°41' W 074°09'0 0.0
2014-Dec-17 23:33N 40°41' W 074°09'0 0.0
2014-Dec-17 22:33N 40°41' W 074°09'0 0.0
2014-Dec-17 21:33N 40°41' W 074°09'0 0.0
2014-Dec-17 20:33N 40°41' W 074°09'0 0.0
2014-Dec-17 19:33N 40°41' W 074°09'0 0.0
2014-Dec-17 18:30N 40°41' W 074°09'0 0.0
2014-Dec-17 17:33N 40°41' W 074°09'0 0.0
2014-Dec-17 16:30N 40°41' W 074°09'0 0.0
2014-Dec-17 15:30N 40°41' W 074°09'0 0.0
2014-Dec-17 14:30N 40°41' W 074°09'0 0.0
2014-Dec-17 13:33N 40°41' W 074°09'0 0.0
2014-Dec-17 12:24N 40°41' W 074°09'0 0.0
2014-Dec-17 11:33N 40°41' W 074°09'0 0.0
2014-Dec-17 10:21N 40°41' W 074°09'0 0.0
2014-Dec-17 09:33N 40°41' W 074°09'0 0.0
2014-Dec-17 08:30N 40°41' W 074°09'0 0.0
2014-Dec-17 07:27N 40°41' W 074°09'0 0.0
2014-Dec-17 06:33N 40°41' W 074°09'0 0.0
2014-Dec-17 05:33N 40°41' W 074°09'0 0.0
2014-Dec-17 04:21N 40°41' W 074°09'0 0.0
2014-Dec-17 03:15N 40°41' W 074°09'0 0.0
2014-Dec-17 02:21N 40°41' W 074°09'0 0.0
2014-Dec-17 01:27N 40°41' W 074°09'0 0.0
2014-Dec-17 00:33N 40°41' W 074°09'0 0.0
2014-Dec-16 23:33N 40°41' W 074°09'0 0.0
2014-Dec-16 22:33N 40°41' W 074°09'1 1.2
2014-Dec-16 21:33N 40°40' W 074°08'4 4.1
2014-Dec-16 20:33N 40°39' W 074°03'1110.6
2014-Dec-16 19:33N 40°30' W 073°56'8 8.4
2014-Dec-16 18:33N 40°24' W 073°47'6 5.7
2014-Dec-16 17:33N 40°18' W 073°46'8 8.5
2014-Dec-16 16:33N 40°10' W 073°45'9 9.2
2014-Dec-16 15:33N 40°01' W 073°43'3 2.9
2014-Dec-16 14:33N 39°58' W 073°43'1110.7
2014-Dec-16 13:33N 39°47' W 073°42'1615.7
2014-Dec-16 12:33N 39°32' W 073°44'1816.0
2014-Dec-16 11:24N 39°14' W 073°51'  
Track history (hours):
 
Tides and Currents Weather Stations Pressure Air Temp Water Temp Dewpoint Dewpoint Depression Visibility Wind Speed Wind Dir Waves Ship Positions

MSC Federica

Last reported at 2014-Dec-19 09:23 UTC. Time now 2014-Dec-22 18:29 UTC.
Position N 33°48' W 076°55'.

Length 294 m; draft 8.7 m.

Type: Ship (hazmat cat B). MMSI: 357363000.

Date/timePositionNaut miles runAvg speedWind from/ knotsBaromVisibWave heightAir tempDewpointWater temp
2014-Dec-19 09:23N 33°48' W 076°55'9117.2
2014-Dec-19 04:07N 34°50' W 075°34'28818.4
2014-Dec-18 12:26N 39°27' W 073°58'1921.3
2014-Dec-18 11:33N 39°46' W 073°53'4214.0
2014-Dec-18 08:33N 40°27' W 073°51'1111.0
2014-Dec-18 07:34N 40°34' W 074°02'7 7.0
2014-Dec-18 06:34N 40°39' W 074°09'3 2.6
2014-Dec-18 05:33N 40°41' W 074°09'0 0.0
2014-Dec-18 04:33N 40°41' W 074°09'0 0.0
2014-Dec-18 03:33N 40°41' W 074°09'0 0.0
2014-Dec-18 02:33N 40°41' W 074°09'0 0.0
2014-Dec-18 01:33N 40°41' W 074°09'0 0.0
2014-Dec-18 00:15N 40°41' W 074°09'0 0.0
2014-Dec-17 23:33N 40°41' W 074°09'0 0.0
2014-Dec-17 22:33N 40°41' W 074°09'0 0.0
2014-Dec-17 21:33N 40°41' W 074°09'0 0.0
2014-Dec-17 20:33N 40°41' W 074°09'0 0.0
2014-Dec-17 19:33N 40°41' W 074°09'0 0.0
2014-Dec-17 18:30N 40°41' W 074°09'0 0.0
2014-Dec-17 17:33N 40°41' W 074°09'0 0.0
2014-Dec-17 16:30N 40°41' W 074°09'0 0.0
2014-Dec-17 15:30N 40°41' W 074°09'0 0.0
2014-Dec-17 14:30N 40°41' W 074°09'0 0.0
2014-Dec-17 13:33N 40°41' W 074°09'0 0.0
2014-Dec-17 12:24N 40°41' W 074°09'0 0.0
2014-Dec-17 11:33N 40°41' W 074°09'0 0.0
2014-Dec-17 10:21N 40°41' W 074°09'0 0.0
2014-Dec-17 09:33N 40°41' W 074°09'0 0.0
2014-Dec-17 08:30N 40°41' W 074°09'0 0.0
2014-Dec-17 07:27N 40°41' W 074°09'0 0.0
2014-Dec-17 06:33N 40°41' W 074°09'0 0.0
2014-Dec-17 05:33N 40°41' W 074°09'0 0.0
2014-Dec-17 04:21N 40°41' W 074°09'0 0.0
2014-Dec-17 03:15N 40°41' W 074°09'0 0.0
2014-Dec-17 02:21N 40°41' W 074°09'0 0.0
2014-Dec-17 01:27N 40°41' W 074°09'0 0.0
2014-Dec-17 00:33N 40°41' W 074°09'0 0.0
2014-Dec-16 23:33N 40°41' W 074°09'0 0.0
2014-Dec-16 22:33N 40°41' W 074°09'1 1.2
2014-Dec-16 21:33N 40°40' W 074°08'4 4.1
2014-Dec-16 20:33N 40°39' W 074°03'1110.6
2014-Dec-16 19:33N 40°30' W 073°56'8 8.4
2014-Dec-16 18:33N 40°24' W 073°47'6 5.7
2014-Dec-16 17:33N 40°18' W 073°46'8 8.5
2014-Dec-16 16:33N 40°10' W 073°45'9 9.2
2014-Dec-16 15:33N 40°01' W 073°43'3 2.9
2014-Dec-16 14:33N 39°58' W 073°43'1110.7
2014-Dec-16 13:33N 39°47' W 073°42'1615.7
2014-Dec-16 12:33N 39°32' W 073°44'1816.0
2014-Dec-16 11:24N 39°14' W 073°51'  

Dump ship's entire track history